createdAt,value
2022-11-22T00:00:08.599Z,99297.59
2022-11-22T00:02:30.809Z,99275.09
2022-11-22T00:04:32.687Z,99301.31
2022-11-22T00:06:34.882Z,99299.53
2022-11-22T00:08:36.694Z,99299.94
2022-11-22T00:10:38.622Z,99297.72
2022-11-22T00:12:41.522Z,99282.44
2022-11-22T00:14:43.403Z,99295.38
2022-11-22T00:16:45.159Z,99294.38
2022-11-22T00:18:47.298Z,99298.00
2022-11-22T00:20:49.089Z,99304.28
2022-11-22T00:22:50.886Z,99305.91
2022-11-22T00:24:53.074Z,99305.06
2022-11-22T00:26:54.823Z,99307.50
2022-11-22T00:28:56.719Z,99293.75
2022-11-22T00:30:58.849Z,99295.34
2022-11-22T00:33:00.626Z,99300.59
2022-11-22T00:35:02.907Z,99296.97
2022-11-22T00:37:05.078Z,99295.66
2022-11-22T00:39:06.853Z,99287.59
2022-11-22T00:41:08.875Z,99302.75
2022-11-22T00:43:11.021Z,99303.19
2022-11-22T00:45:13.038Z,99304.69
2022-11-22T00:47:15.086Z,99298.44
2022-11-22T00:49:17.299Z,99305.56
2022-11-22T00:51:19.086Z,99308.50
2022-11-22T00:53:20.974Z,99313.59
2022-11-22T00:55:23.090Z,99305.19
2022-11-22T00:57:24.923Z,99306.00
2022-11-22T00:59:27.177Z,99308.00
2022-11-22T01:01:29.669Z,99283.16
2022-11-22T01:03:31.543Z,99305.28
2022-11-22T01:05:33.500Z,99289.63
2022-11-22T01:07:35.645Z,99304.19
2022-11-22T01:09:37.640Z,99283.88
2022-11-22T01:11:39.398Z,99295.78
2022-11-22T01:13:41.500Z,99295.59
2022-11-22T01:15:43.255Z,99307.72
2022-11-22T01:17:45.218Z,99315.81
2022-11-22T01:19:47.310Z,99303.69
2022-11-22T01:21:49.095Z,99304.91
2022-11-22T01:23:51.456Z,99293.97
2022-11-22T01:25:53.598Z,99299.13
2022-11-22T01:27:55.378Z,99304.88
2022-11-22T01:29:57.297Z,99309.81
2022-11-22T01:31:59.426Z,99302.75
2022-11-22T01:34:01.231Z,99295.56
2022-11-22T01:36:03.330Z,99286.31
2022-11-22T01:38:05.461Z,99298.91
2022-11-22T01:40:07.870Z,99291.06
2022-11-22T01:42:11.353Z,99285.38
2022-11-22T01:44:25.578Z,99301.03
2022-11-22T01:46:34.906Z,99302.88
2022-11-22T01:48:49.014Z,99303.47
2022-11-22T01:50:57.421Z,99303.19
2022-11-22T01:53:04.287Z,99299.81
2022-11-22T01:55:12.881Z,99301.34
2022-11-22T01:57:19.398Z,99306.50
2022-11-22T01:59:25.206Z,99305.47
2022-11-22T02:01:28.510Z,99314.38
2022-11-22T02:03:33.388Z,99313.66
2022-11-22T02:05:35.861Z,99305.19
2022-11-22T02:07:51.781Z,99332.28
2022-11-22T02:09:54.300Z,99327.31
2022-11-22T02:12:00.379Z,99329.94
2022-11-22T02:14:03.778Z,99319.03
2022-11-22T02:16:06.909Z,99321.84
2022-11-22T02:18:09.282Z,99324.88
2022-11-22T02:20:11.738Z,99332.56
2022-11-22T02:22:34.000Z,99334.19
2022-11-22T02:24:43.985Z,99340.03
2022-11-22T02:26:46.149Z,99338.03
2022-11-22T02:28:49.770Z,99345.31
2022-11-22T02:30:51.576Z,99341.88
2022-11-22T02:32:53.386Z,99340.44
2022-11-22T02:34:55.479Z,99340.44
2022-11-22T02:36:57.526Z,99340.75
2022-11-22T02:38:59.379Z,99352.50
2022-11-22T02:41:08.724Z,99352.97
2022-11-22T02:43:17.943Z,99357.31
2022-11-22T02:45:19.838Z,99346.09
2022-11-22T02:47:22.161Z,99349.63
2022-11-22T02:49:25.168Z,99352.59
2022-11-22T02:51:27.109Z,99343.69
2022-11-22T02:53:31.734Z,99347.03
2022-11-22T02:55:33.980Z,99352.00
2022-11-22T02:57:35.852Z,99344.91
2022-11-22T02:59:37.995Z,99350.16
2022-11-22T03:01:40.758Z,99343.91
2022-11-22T03:03:42.545Z,99339.03
2022-11-22T03:05:44.906Z,99342.09
2022-11-22T03:07:46.772Z,99343.28
2022-11-22T03:09:48.568Z,99336.22
2022-11-22T03:11:50.862Z,99332.34
2022-11-22T03:13:52.672Z,99324.59
2022-11-22T03:15:54.528Z,99337.22
2022-11-22T03:18:00.941Z,99338.72
2022-11-22T03:20:03.351Z,99339.03
2022-11-22T03:22:05.407Z,99330.03
2022-11-22T03:24:08.403Z,99340.03
2022-11-22T03:26:11.399Z,99351.06
2022-11-22T03:28:13.111Z,99343.28
2022-11-22T03:30:15.806Z,99343.09
2022-11-22T03:32:17.594Z,99347.63
2022-11-22T03:34:19.403Z,99338.66
2022-11-22T03:36:21.926Z,99349.66
2022-11-22T03:38:23.836Z,99330.56
2022-11-22T03:40:25.618Z,99332.06
2022-11-22T03:42:28.229Z,99336.50
2022-11-22T03:44:29.994Z,99331.56
2022-11-22T03:46:31.978Z,99339.75
2022-11-22T03:48:34.115Z,99321.44
2022-11-22T03:50:35.910Z,99342.88
2022-11-22T03:52:37.782Z,99323.28
2022-11-22T03:54:39.933Z,99335.22
2022-11-22T03:56:41.702Z,99319.94
2022-11-22T03:58:43.599Z,99336.41
2022-11-22T04:00:45.673Z,99337.22
2022-11-22T04:02:47.476Z,99333.19
2022-11-22T04:04:49.231Z,99337.81
2022-11-22T04:06:51.344Z,99336.44
2022-11-22T04:08:53.189Z,99341.88
2022-11-22T04:10:55.023Z,99341.38
2022-11-22T04:12:58.505Z,99337.53
2022-11-22T04:15:09.587Z,99333.88
2022-11-22T04:17:35.022Z,99341.56
2022-11-22T04:19:37.100Z,99335.59
2022-11-22T04:21:38.869Z,99336.09
2022-11-22T04:23:42.627Z,99322.78
2022-11-22T04:25:50.137Z,99327.00
2022-11-22T04:27:52.038Z,99309.81
2022-11-22T04:29:53.809Z,99321.44
2022-11-22T04:32:14.343Z,99320.44
2022-11-22T04:34:16.078Z,99322.44
2022-11-22T04:36:18.038Z,99323.28
2022-11-22T04:38:20.627Z,99325.88
2022-11-22T04:40:22.456Z,99324.28
2022-11-22T04:42:42.830Z,99315.81
2022-11-22T04:44:45.622Z,99319.41
2022-11-22T04:46:47.366Z,99318.00
2022-11-22T04:48:49.101Z,99315.78
2022-11-22T04:51:09.948Z,99307.50
2022-11-22T04:53:11.957Z,99307.69
2022-11-22T04:55:14.063Z,99311.53
2022-11-22T04:57:16.142Z,99322.53
2022-11-22T04:59:18.321Z,99312.66
2022-11-22T05:01:20.338Z,99325.91
2022-11-22T05:03:22.637Z,99313.84
2022-11-22T05:05:25.734Z,99306.41
2022-11-22T05:07:27.650Z,99296.34
2022-11-22T05:09:29.897Z,99319.13
2022-11-22T05:11:31.872Z,99330.06
2022-11-22T05:13:37.088Z,99337.59
2022-11-22T05:15:39.150Z,99339.72
2022-11-22T05:17:40.933Z,99340.91
2022-11-22T05:19:48.917Z,99336.13
2022-11-22T05:21:51.315Z,99329.06
2022-11-22T05:23:56.546Z,99345.00
2022-11-22T05:25:59.144Z,99347.09
2022-11-22T05:28:01.214Z,99341.53
2022-11-22T05:30:03.439Z,99331.22
2022-11-22T05:32:05.205Z,99343.97
2022-11-22T05:34:07.523Z,99356.19
2022-11-22T05:36:09.673Z,99345.50
2022-11-22T05:38:11.451Z,99360.34
2022-11-22T05:40:13.620Z,99352.16
2022-11-22T05:42:15.343Z,99358.13
2022-11-22T05:44:17.074Z,99368.72
2022-11-22T05:46:25.412Z,99352.25
2022-11-22T05:48:27.317Z,99366.94
2022-11-22T05:50:29.106Z,99375.00
2022-11-22T05:52:31.451Z,99380.16
2022-11-22T05:54:33.217Z,99380.16
2022-11-22T05:56:35.317Z,99381.78
2022-11-22T05:58:37.838Z,99389.03
2022-11-22T06:00:39.629Z,99380.66
2022-11-22T06:02:41.499Z,99392.09
2022-11-22T06:04:43.630Z,99394.81
2022-11-22T06:06:47.141Z,99387.13
2022-11-22T06:08:49.082Z,99391.34
2022-11-22T06:10:51.155Z,99392.78
2022-11-22T06:12:53.234Z,99392.00
2022-11-22T06:14:55.007Z,99395.75
2022-11-22T06:16:57.120Z,99391.09
2022-11-22T06:18:58.837Z,99389.66
2022-11-22T06:21:02.404Z,99391.09
2022-11-22T06:23:04.466Z,99402.53
2022-11-22T06:25:06.681Z,99399.28
2022-11-22T06:27:09.012Z,99405.34
2022-11-22T06:29:11.119Z,99407.06
2022-11-22T06:31:18.186Z,99407.69
2022-11-22T06:33:20.651Z,99396.97
2022-11-22T06:35:22.768Z,99402.31
2022-11-22T06:37:24.770Z,99410.59
2022-11-22T06:39:26.740Z,99413.44
2022-11-22T06:41:35.285Z,99416.47
2022-11-22T06:43:41.391Z,99407.19
2022-11-22T06:45:46.959Z,99408.50
2022-11-22T06:47:49.049Z,99415.25
2022-11-22T06:49:50.990Z,99395.13
2022-11-22T06:51:52.699Z,99414.16
2022-11-22T06:53:56.126Z,99405.97
2022-11-22T06:56:05.267Z,99403.03
2022-11-22T06:58:07.010Z,99406.69
2022-11-22T07:00:10.048Z,99407.78
2022-11-22T07:02:12.302Z,99416.19
2022-11-22T07:04:14.198Z,99413.22
2022-11-22T07:06:18.321Z,99417.47
2022-11-22T07:08:20.374Z,99427.81
2022-11-22T07:10:22.107Z,99430.22
2022-11-22T07:12:24.482Z,99416.88
2022-11-22T07:14:26.265Z,99432.03
2022-11-22T07:16:28.303Z,99429.03
2022-11-22T07:18:30.911Z,99427.91
2022-11-22T07:20:32.898Z,99418.47
2022-11-22T07:22:34.639Z,99426.47
2022-11-22T07:24:36.763Z,99440.31
2022-11-22T07:26:38.584Z,99443.16
2022-11-22T07:28:41.075Z,99432.13
2022-11-22T07:30:44.297Z,99443.97
2022-11-22T07:32:49.242Z,99434.47
2022-11-22T07:34:51.027Z,99425.56
2022-11-22T07:36:58.726Z,99422.22
2022-11-22T07:39:03.556Z,99423.66
2022-11-22T07:41:06.338Z,99429.72
2022-11-22T07:43:08.337Z,99430.22
2022-11-22T07:45:10.538Z,99434.56
2022-11-22T07:47:12.280Z,99418.09
2022-11-22T07:49:14.458Z,99357.94
2022-11-22T07:51:16.780Z,99442.34
2022-11-22T07:53:18.539Z,99437.00
2022-11-22T07:55:20.631Z,99422.94
2022-11-22T07:57:22.521Z,99435.69
2022-11-22T07:59:25.227Z,99435.59
2022-11-22T08:01:27.322Z,99442.69
2022-11-22T08:03:29.496Z,99437.31
2022-11-22T08:05:31.284Z,99448.16
2022-11-22T08:07:33.662Z,99451.47
2022-11-22T08:09:36.170Z,99446.59
2022-11-22T08:11:37.931Z,99462.19
2022-11-22T08:13:40.871Z,99460.66
2022-11-22T08:15:42.899Z,99434.66
2022-11-22T08:17:44.659Z,99446.22
2022-11-22T08:19:46.941Z,99443.06
2022-11-22T08:21:52.734Z,99449.53
2022-11-22T08:23:59.167Z,99451.06
2022-11-22T08:26:01.361Z,99451.88
2022-11-22T08:28:03.433Z,99444.56
2022-11-22T08:30:05.592Z,99453.78
2022-11-22T08:32:07.689Z,99447.44
2022-11-22T08:34:09.672Z,99456.50
2022-11-22T08:36:11.877Z,99456.31
2022-11-22T08:38:13.966Z,99458.03
2022-11-22T08:40:15.746Z,99467.22
2022-11-22T08:42:17.605Z,99465.72
2022-11-22T08:44:19.766Z,99460.38
2022-11-22T08:46:21.595Z,99459.03
2022-11-22T08:48:27.022Z,99461.59
2022-11-22T08:50:29.201Z,99441.97
2022-11-22T08:52:30.984Z,99452.69
2022-11-22T08:54:37.527Z,99454.28
2022-11-22T08:56:40.153Z,99459.97
2022-11-22T08:58:42.326Z,99467.22
2022-11-22T09:00:44.386Z,99460.66
2022-11-22T09:02:46.650Z,99454.78
2022-11-22T09:04:48.364Z,99466.84
2022-11-22T09:09:36.396Z,99472.00
2022-11-22T09:11:34.271Z,99439.31
2022-11-22T09:13:36.802Z,99450.66
2022-11-22T09:15:38.854Z,99468.88
2022-11-22T09:17:40.665Z,99465.19
2022-11-22T09:19:42.786Z,99465.63
2022-11-22T09:21:44.610Z,99453.19
2022-11-22T09:23:48.713Z,99478.34
2022-11-22T09:26:02.209Z,99476.94
2022-11-22T09:28:04.021Z,99480.38
2022-11-22T09:30:06.410Z,99470.94
2022-11-22T09:32:23.188Z,99460.94
2022-11-22T09:34:25.286Z,99471.88
2022-11-22T09:36:27.421Z,99473.09
2022-11-22T09:38:30.840Z,99452.75
2022-11-22T09:40:33.159Z,99467.50
2022-11-22T09:42:53.443Z,99472.13
2022-11-22T09:45:06.487Z,99470.72
2022-11-22T09:47:42.569Z,99469.13
2022-11-22T09:49:47.233Z,99470.72
2022-11-22T09:51:54.067Z,99465.28
2022-11-22T09:54:11.155Z,99463.00
2022-11-22T09:56:15.838Z,99478.59
2022-11-22T09:58:27.161Z,99478.81
2022-11-22T10:00:30.329Z,99474.88
2022-11-22T10:02:59.418Z,99460.56
2022-11-22T10:05:07.911Z,99451.66
2022-11-22T10:07:20.412Z,99471.00
2022-11-22T10:09:48.602Z,99468.66
2022-11-22T10:12:02.463Z,99465.94
2022-11-22T10:14:13.482Z,99446.69
2022-11-22T10:16:28.047Z,99460.47
2022-11-22T10:19:05.606Z,99457.16
2022-11-22T10:21:15.610Z,99438.06
2022-11-22T10:23:22.811Z,99451.00
2022-11-22T10:25:48.319Z,99463.88
2022-11-22T10:28:00.986Z,99450.06
2022-11-22T10:30:06.401Z,99458.69
2022-11-22T10:32:24.563Z,99445.09
2022-11-22T10:34:38.586Z,99452.69
2022-11-22T10:37:03.678Z,99455.91
2022-11-22T10:39:17.632Z,99455.41
2022-11-22T10:41:55.102Z,99469.09
2022-11-22T10:44:18.483Z,99471.75
2022-11-22T10:46:56.758Z,99475.88
2022-11-22T10:49:14.641Z,99478.41
2022-11-22T10:51:26.882Z,99477.53
2022-11-22T10:53:48.890Z,99486.38
2022-11-22T10:56:03.337Z,99501.31
2022-11-22T10:58:18.053Z,99505.84
2022-11-22T11:00:22.114Z,99489.28
2022-11-22T11:03:05.105Z,99502.19
2022-11-22T11:05:13.904Z,99485.63
2022-11-22T11:07:22.682Z,99493.78
2022-11-22T11:12:47.022Z,99475.44
2022-11-22T11:14:54.523Z,99464.91
2022-11-22T11:16:59.500Z,99473.63
2022-11-22T11:19:22.774Z,99469.91
2022-11-22T11:21:27.004Z,99470.69
2022-11-22T11:23:29.156Z,99465.34
2022-11-22T11:25:33.845Z,99483.41
2022-11-22T11:27:35.850Z,99481.59
2022-11-22T11:29:52.066Z,99471.47
2022-11-22T11:32:10.418Z,99457.69
2022-11-22T11:34:25.673Z,99459.97
2022-11-22T11:36:27.456Z,99450.63
2022-11-22T11:38:52.170Z,99466.00
2022-11-22T11:40:56.248Z,99458.75
2022-11-22T11:43:20.814Z,99468.56
2022-11-22T11:45:25.614Z,99472.53
2022-11-22T11:47:34.918Z,99473.63
2022-11-22T11:49:36.882Z,99468.22
2022-11-22T11:51:42.098Z,99465.66
2022-11-22T11:53:55.350Z,99450.41
2022-11-22T11:56:17.085Z,99445.38
2022-11-22T11:58:23.823Z,99458.75
2022-11-22T12:00:34.812Z,99446.81
2022-11-22T12:02:42.185Z,99448.94
2022-11-22T12:04:53.921Z,99454.22
2022-11-22T12:07:03.143Z,99455.31
2022-11-22T12:09:26.686Z,99450.44
2022-11-22T12:11:43.876Z,99444.22
2022-11-22T12:14:19.117Z,99452.44
2022-11-22T12:16:26.206Z,99448.44
2022-11-22T12:18:46.846Z,99454.06
2022-11-22T12:20:55.516Z,99454.28
2022-11-22T12:23:09.906Z,99455.53
2022-11-22T12:25:32.930Z,99426.63
2022-11-22T12:27:35.213Z,99445.56
2022-11-22T12:29:43.827Z,99451.38
2022-11-22T12:31:53.309Z,99472.34
2022-11-22T12:34:00.884Z,99468.44
2022-11-22T12:36:06.543Z,99464.91
2022-11-22T12:38:17.306Z,99470.13
2022-11-22T12:40:26.238Z,99464.03
2022-11-22T12:42:33.959Z,99450.72
2022-11-22T12:44:39.966Z,99451.94
2022-11-22T12:46:48.694Z,99451.59
2022-11-22T12:48:53.659Z,99455.41
2022-11-22T12:51:01.384Z,99432.41
2022-11-22T12:53:12.271Z,99450.88
2022-11-22T12:55:20.407Z,99451.38
2022-11-22T12:57:32.975Z,99443.66
2022-11-22T12:59:48.427Z,99455.22
2022-11-22T13:02:05.016Z,99443.00
2022-11-22T13:04:09.981Z,99445.59
2022-11-22T13:06:14.050Z,99446.41
2022-11-22T13:08:19.067Z,99452.84
2022-11-22T13:10:31.931Z,99442.47
2022-11-22T13:12:38.498Z,99459.19
2022-11-22T13:15:01.631Z,99460.97
2022-11-22T13:17:09.401Z,99448.69
2022-11-22T13:19:17.073Z,99423.94
2022-11-22T13:21:35.061Z,99451.06
2022-11-22T13:24:17.064Z,99438.22
2022-11-22T13:26:46.215Z,99443.28
2022-11-22T13:28:48.785Z,99442.16
2022-11-22T13:31:07.704Z,99456.34
2022-11-22T13:33:25.660Z,99446.88
2022-11-22T13:35:40.458Z,99449.38
2022-11-22T13:37:47.109Z,99423.97
2022-11-22T13:39:50.138Z,99452.84
2022-11-22T13:42:04.682Z,99453.00
2022-11-22T13:44:42.696Z,99448.44
2022-11-22T13:47:12.535Z,99441.72
2022-11-22T13:49:33.792Z,99439.09
2022-11-22T13:51:54.128Z,99419.81
2022-11-22T13:54:35.742Z,99451.31
2022-11-22T13:56:41.116Z,99457.56
2022-11-22T13:59:03.249Z,99456.25
2022-11-22T14:01:30.817Z,99465.16
2022-11-22T14:03:38.859Z,99462.16
2022-11-22T14:05:47.498Z,99457.22
2022-11-22T14:07:51.579Z,99464.19
2022-11-22T14:09:53.451Z,99458.94
2022-11-22T14:12:25.046Z,99453.78
2022-11-22T14:14:35.858Z,99453.69
2022-11-22T14:16:48.424Z,99461.25
2022-11-22T14:19:27.994Z,99449.31
2022-11-22T14:22:09.914Z,99460.94
2022-11-22T14:24:21.181Z,99467.94
2022-11-22T14:26:38.658Z,99469.28
2022-11-22T14:29:37.652Z,99476.34
2022-11-22T14:31:40.965Z,99468.13
2022-11-22T14:34:39.886Z,99473.41
2022-11-22T14:36:43.695Z,99464.19
2022-11-22T14:38:53.299Z,99447.94
2022-11-22T14:41:33.896Z,99468.44
2022-11-22T14:43:41.113Z,99462.09
2022-11-22T14:46:00.733Z,99465.81
2022-11-22T14:48:24.551Z,99465.81
2022-11-22T14:50:43.164Z,99479.00
2022-11-22T14:52:47.142Z,99469.56
2022-11-22T14:54:55.142Z,99477.97
2022-11-22T14:57:07.413Z,99454.09
2022-11-22T14:59:31.968Z,99454.41
2022-11-22T15:01:58.865Z,99475.03
2022-11-22T15:09:17.048Z,99479.47
2022-11-22T15:09:19.629Z,99476.75
2022-11-22T15:10:34.162Z,99479.34
2022-11-22T15:13:15.750Z,99463.31
2022-11-22T15:57:50.871Z,99485.88
2022-11-22T15:59:55.734Z,99449.69
2022-11-22T16:02:00.060Z,99483.66
2022-11-22T16:04:04.738Z,99470.69
2022-11-22T16:06:15.545Z,99479.50
2022-11-22T16:08:17.395Z,99479.78
2022-11-22T16:10:25.808Z,99465.53
2022-11-22T16:12:37.048Z,99477.38
2022-11-22T16:14:45.950Z,99472.22
2022-11-22T16:16:49.746Z,99457.88
2022-11-22T16:19:22.273Z,99476.59
2022-11-22T16:21:30.013Z,99492.56
2022-11-22T16:23:35.185Z,99481.22
2022-11-22T16:25:44.838Z,99483.94
2022-11-22T16:27:48.692Z,99491.47
2022-11-22T16:29:52.243Z,99480.25
2022-11-22T16:32:24.191Z,99474.06
2022-11-22T16:34:26.753Z,99470.06
2022-11-22T16:36:30.097Z,99481.44
2022-11-22T16:38:34.895Z,99476.59
2022-11-22T16:40:44.419Z,99468.94
2022-11-22T16:42:47.420Z,99481.59
2022-11-22T16:44:50.765Z,99486.38
2022-11-22T16:46:53.347Z,99482.47
2022-11-22T16:48:56.200Z,99482.84
2022-11-22T16:50:59.560Z,99483.31
2022-11-22T16:53:04.816Z,99478.13
2022-11-22T16:55:20.107Z,99476.31
2022-11-22T16:57:22.837Z,99480.69
2022-11-22T16:59:24.733Z,99493.03
2022-11-22T17:01:33.235Z,99483.91
2022-11-22T17:03:41.024Z,99480.31
2022-11-22T17:05:43.206Z,99483.69
2022-11-22T17:07:45.825Z,99497.41
2022-11-22T17:09:48.120Z,99488.25
2022-11-22T17:11:51.090Z,99478.81
2022-11-22T17:13:53.740Z,99475.41
2022-11-22T17:15:56.734Z,99495.16
2022-11-22T17:17:58.522Z,99490.78
2022-11-22T17:20:03.350Z,99481.75
2022-11-22T17:24:33.513Z,99469.81
2022-11-22T17:26:37.865Z,99485.53
2022-11-22T17:28:42.454Z,99492.28
2022-11-22T17:30:45.431Z,99493.38
2022-11-22T17:32:48.013Z,99499.69
2022-11-22T17:34:52.424Z,99488.25
2022-11-22T17:36:54.281Z,99477.63
2022-11-22T17:38:57.892Z,99501.25
2022-11-22T17:43:21.271Z,99466.53
2022-11-22T17:45:23.760Z,99493.41
2022-11-22T17:47:26.282Z,99488.53
2022-11-22T17:49:28.741Z,99484.59
2022-11-22T17:51:31.881Z,99490.34
2022-11-22T17:53:35.170Z,99487.09
2022-11-22T17:56:09.119Z,99490.75
2022-11-22T17:58:02.225Z,99496.31
2022-11-22T18:00:09.731Z,99502.88
2022-11-22T18:02:13.076Z,99502.28
2022-11-22T18:04:17.694Z,99499.13
2022-11-22T18:06:23.547Z,99493.47
2022-11-22T18:08:25.440Z,99506.31
2022-11-22T18:10:27.715Z,99515.03
2022-11-22T18:12:29.907Z,99510.81
2022-11-22T18:14:38.575Z,99494.72
2022-11-22T18:16:41.111Z,99515.94
2022-11-22T18:18:56.851Z,99495.56
2022-11-22T18:20:59.474Z,99504.78
2022-11-22T18:23:05.222Z,99525.00
2022-11-22T18:25:07.691Z,99511.72
2022-11-22T18:27:11.451Z,99527.94
2022-11-22T18:31:51.152Z,99533.59
2022-11-22T18:33:55.448Z,99510.91
2022-11-22T18:36:06.258Z,99522.41
2022-11-22T18:38:08.363Z,99523.53
2022-11-22T18:40:10.917Z,99530.81
2022-11-22T18:42:15.968Z,99529.97
2022-11-22T18:44:18.221Z,99515.69
2022-11-22T18:46:20.038Z,99504.09
2022-11-22T18:48:24.545Z,99506.75
2022-11-22T18:50:27.049Z,99520.63
2022-11-22T18:52:34.390Z,99533.44
2022-11-22T18:54:36.628Z,99535.31
2022-11-22T18:56:41.154Z,99506.16
2022-11-22T18:58:43.964Z,99519.25
2022-11-22T19:00:48.112Z,99529.34
2022-11-22T19:02:51.621Z,99500.81
2022-11-22T19:04:54.385Z,99530.53
2022-11-22T19:06:56.737Z,99517.78
2022-11-22T19:08:58.573Z,99533.59
2022-11-22T19:11:00.423Z,99532.97
2022-11-22T19:13:04.513Z,99531.03
2022-11-22T19:15:09.115Z,99535.59
2022-11-22T19:17:10.947Z,99523.50
2022-11-22T19:19:13.971Z,99519.13
2022-11-22T19:21:19.829Z,99521.31
2022-11-22T19:23:22.215Z,99541.97
2022-11-22T19:25:25.844Z,99523.19
2022-11-22T19:27:28.878Z,99542.97
2022-11-22T19:29:36.849Z,99532.63
2022-11-22T19:31:40.727Z,99544.41
2022-11-22T19:33:55.655Z,99528.41
2022-11-22T19:35:58.926Z,99534.03
2022-11-22T19:38:02.062Z,99536.50
2022-11-22T19:40:06.245Z,99553.28
2022-11-22T19:42:08.359Z,99557.47
2022-11-22T19:44:11.543Z,99550.19
2022-11-22T19:46:14.397Z,99554.91
2022-11-22T19:48:20.415Z,99570.69
2022-11-22T19:50:22.588Z,99569.38
2022-11-22T19:52:24.618Z,99557.34
2022-11-22T19:54:26.562Z,99569.72
2022-11-22T19:56:34.521Z,99570.59
2022-11-22T19:58:36.576Z,99578.72
2022-11-22T20:00:38.395Z,99579.03
2022-11-22T20:02:42.455Z,99571.94
2022-11-22T20:04:44.690Z,99579.25
2022-11-22T20:06:52.202Z,99585.66
2022-11-22T20:09:05.976Z,99587.94
2022-11-22T20:11:09.955Z,99594.94
2022-11-22T20:13:19.690Z,99594.44
2022-11-22T20:15:22.585Z,99594.41
2022-11-22T20:17:24.354Z,99591.69
2022-11-22T20:19:34.784Z,99604.75
2022-11-22T20:21:37.914Z,99591.19
2022-11-22T20:23:39.900Z,99600.53
2022-11-22T20:25:41.864Z,99599.28
2022-11-22T20:27:44.049Z,99600.72
2022-11-22T20:29:48.376Z,99596.28
2022-11-22T20:31:50.486Z,99593.38
2022-11-22T20:33:57.912Z,99592.28
2022-11-22T20:36:11.506Z,99598.34
2022-11-22T20:38:15.518Z,99593.47
2022-11-22T20:40:17.725Z,99590.06
2022-11-22T20:42:35.917Z,99597.88
2022-11-22T20:44:37.802Z,99585.00
2022-11-22T20:46:40.832Z,99587.19
2022-11-22T20:48:51.727Z,99590.31
2022-11-22T20:50:53.572Z,99565.47
2022-11-22T20:52:56.353Z,99583.97
2022-11-22T20:55:04.852Z,99575.34
2022-11-22T20:57:07.038Z,99590.38
2022-11-22T20:59:09.257Z,99588.59
2022-11-22T21:01:16.022Z,99574.13
2022-11-22T21:03:17.847Z,99592.09
2022-11-22T21:05:19.979Z,99587.66
2022-11-22T21:07:21.792Z,99589.84
2022-11-22T21:09:24.598Z,99578.44
2022-11-22T21:11:32.087Z,99582.13
2022-11-22T21:13:34.667Z,99582.78
2022-11-22T21:15:36.586Z,99591.69
2022-11-22T21:17:55.736Z,99591.66
2022-11-22T21:20:01.359Z,99597.59
2022-11-22T21:22:03.658Z,99586.00
2022-11-22T21:24:06.743Z,99592.28
2022-11-22T21:26:08.781Z,99594.31
2022-11-22T21:28:10.553Z,99595.25
2022-11-22T21:30:13.729Z,99614.72
2022-11-22T21:32:17.569Z,99609.25
2022-11-22T21:34:19.320Z,99608.88
2022-11-22T21:36:21.561Z,99604.53
2022-11-22T21:38:29.660Z,99599.16
2022-11-22T21:40:32.973Z,99594.53
2022-11-22T21:42:36.566Z,99604.75
2022-11-22T21:44:38.650Z,99596.00
2022-11-22T21:46:40.450Z,99587.16
2022-11-22T21:48:42.628Z,99600.47
2022-11-22T21:50:44.655Z,99594.13
2022-11-22T21:52:48.961Z,99583.28
2022-11-22T21:54:54.447Z,99590.00
2022-11-22T21:56:59.905Z,99590.22
2022-11-22T21:59:06.290Z,99586.31
2022-11-22T22:01:14.225Z,99600.91
2022-11-22T22:03:16.957Z,99587.28
2022-11-22T22:05:19.578Z,99587.41
2022-11-22T22:07:50.978Z,99580.66
2022-11-22T22:09:43.737Z,99565.75
2022-11-22T22:11:47.819Z,99562.28
2022-11-22T22:13:53.209Z,99563.19
2022-11-22T22:15:59.493Z,99545.41
2022-11-22T22:18:03.598Z,99567.81
2022-11-22T22:20:06.849Z,99557.22
2022-11-22T22:22:09.633Z,99565.16
2022-11-22T22:24:11.674Z,99566.63
2022-11-22T22:26:16.615Z,99570.09
2022-11-22T22:28:18.474Z,99562.88
2022-11-22T22:30:23.060Z,99571.66
2022-11-22T22:32:26.984Z,99571.88
2022-11-22T22:34:29.001Z,99570.09
2022-11-22T22:36:30.856Z,99579.75
2022-11-22T22:38:33.634Z,99583.31
2022-11-22T22:40:35.397Z,99572.91
2022-11-22T22:42:37.493Z,99577.41
2022-11-22T22:44:41.231Z,99576.88
2022-11-22T22:46:43.081Z,99564.13
2022-11-22T22:48:45.995Z,99564.63
2022-11-22T22:50:48.204Z,99568.03
2022-11-22T22:52:50.131Z,99571.44
2022-11-22T22:54:51.924Z,99553.31
2022-11-22T22:56:54.032Z,99556.44
2022-11-22T22:58:57.303Z,99545.94
2022-11-22T23:01:12.620Z,99556.03
2022-11-22T23:03:14.807Z,99548.44
2022-11-22T23:05:17.044Z,99566.88
2022-11-22T23:07:18.892Z,99542.03
2022-11-22T23:09:22.015Z,99544.09
2022-11-22T23:11:45.437Z,99547.50
2022-11-22T23:13:47.251Z,99554.69
2022-11-22T23:15:58.361Z,99548.94
2022-11-22T23:18:00.821Z,99543.41
2022-11-22T23:20:02.697Z,99544.16
2022-11-22T23:22:05.304Z,99545.28
2022-11-22T23:24:08.189Z,99544.91
2022-11-22T23:26:12.301Z,99547.25
2022-11-22T23:28:14.513Z,99548.44
2022-11-22T23:30:16.672Z,99525.97
2022-11-22T23:32:18.509Z,99541.81
2022-11-22T23:34:20.723Z,99537.38
2022-11-22T23:36:23.022Z,99524.19
2022-11-22T23:38:24.755Z,99525.34
2022-11-22T23:40:27.122Z,99524.38
2022-11-22T23:42:29.692Z,99526.59
2022-11-22T23:44:31.444Z,99521.44
2022-11-22T23:46:33.716Z,99532.78
2022-11-22T23:48:35.569Z,99516.44
2022-11-22T23:50:37.712Z,99531.25
2022-11-22T23:52:39.824Z,99541.00
2022-11-22T23:54:41.579Z,99533.72
2022-11-22T23:56:43.616Z,99533.31
2022-11-22T23:58:45.757Z,99530.94
